sensor_id;sensor_type;location;lat;lon;timestamp;P1;durP1;ratioP1;P2;durP2;ratioP2
67712;SDS011;67640;55.784;49.138;2023-03-31T00:04:22;5.87;;;1.00;;
67712;SDS011;67640;55.784;49.138;2023-03-31T00:09:39;5.30;;;0.67;;
67712;SDS011;67640;55.784;49.138;2023-03-31T00:14:46;2.60;;;0.70;;
67712;SDS011;67640;55.784;49.138;2023-03-31T00:19:52;3.07;;;0.57;;
67712;SDS011;67640;55.784;49.138;2023-03-31T00:25:13;10.07;;;0.83;;
67712;SDS011;67640;55.784;49.138;2023-03-31T00:30:18;3.52;;;0.70;;
67712;SDS011;67640;55.784;49.138;2023-03-31T00:35:25;2.80;;;0.60;;
67712;SDS011;67640;55.784;49.138;2023-03-31T00:40:44;3.30;;;0.80;;
67712;SDS011;67640;55.784;49.138;2023-03-31T00:51:42;8.40;;;0.83;;
67712;SDS011;67640;55.784;49.138;2023-03-31T00:56:48;4.70;;;0.78;;
67712;SDS011;67640;55.784;49.138;2023-03-31T01:02:07;2.45;;;0.70;;
67712;SDS011;67640;55.784;49.138;2023-03-31T01:12:39;2.67;;;0.70;;
67712;SDS011;67640;55.784;49.138;2023-03-31T01:17:45;3.27;;;0.70;;
67712;SDS011;67640;55.784;49.138;2023-03-31T02:01:17;3.60;;;0.80;;
67712;SDS011;67640;55.784;49.138;2023-03-31T02:06:42;4.22;;;1.00;;
67712;SDS011;67640;55.784;49.138;2023-03-31T02:17:41;4.28;;;1.02;;
67712;SDS011;67640;55.784;49.138;2023-03-31T02:22:49;4.00;;;0.70;;
67712;SDS011;67640;55.784;49.138;2023-03-31T02:28:07;4.57;;;0.83;;
67712;SDS011;67640;55.784;49.138;2023-03-31T02:33:24;3.62;;;1.00;;
67712;SDS011;67640;55.784;49.138;2023-03-31T02:38:32;3.15;;;1.00;;
67712;SDS011;67640;55.784;49.138;2023-03-31T02:43:51;9.23;;;1.30;;
67712;SDS011;67640;55.784;49.138;2023-03-31T02:48:57;6.55;;;1.37;;
67712;SDS011;67640;55.784;49.138;2023-03-31T03:16:27;5.37;;;0.90;;
67712;SDS011;67640;55.784;49.138;2023-03-31T03:21:37;2.80;;;0.80;;
67712;SDS011;67640;55.784;49.138;2023-03-31T03:26:56;3.30;;;0.80;;
67712;SDS011;67640;55.784;49.138;2023-03-31T03:32:00;6.67;;;0.90;;
67712;SDS011;67640;55.784;49.138;2023-03-31T03:37:18;3.83;;;1.00;;
67712;SDS011;67640;55.784;49.138;2023-03-31T03:42:23;6.37;;;1.00;;
67712;SDS011;67640;55.784;49.138;2023-03-31T03:47:28;3.90;;;1.10;;
67712;SDS011;67640;55.784;49.138;2023-03-31T03:52:47;7.05;;;1.25;;
67712;SDS011;67640;55.784;49.138;2023-03-31T03:58:06;5.83;;;1.30;;
67712;SDS011;67640;55.784;49.138;2023-03-31T04:03:25;7.67;;;1.20;;
67712;SDS011;67640;55.784;49.138;2023-03-31T04:08:30;9.05;;;1.52;;
67712;SDS011;67640;55.784;49.138;2023-03-31T04:13:35;6.43;;;0.87;;
67712;SDS011;67640;55.784;49.138;2023-03-31T04:18:40;12.75;;;1.30;;
67712;SDS011;67640;55.784;49.138;2023-03-31T04:23:59;9.23;;;1.27;;
67712;SDS011;67640;55.784;49.138;2023-03-31T04:29:19;7.42;;;1.25;;
67712;SDS011;67640;55.784;49.138;2023-03-31T04:34:24;7.80;;;1.40;;
67712;SDS011;67640;55.784;49.138;2023-03-31T04:39:29;6.83;;;1.27;;
67712;SDS011;67640;55.784;49.138;2023-03-31T04:44:36;11.12;;;1.62;;
67712;SDS011;67640;55.784;49.138;2023-03-31T04:49:55;10.20;;;1.43;;
67712;SDS011;67640;55.784;49.138;2023-03-31T04:55:13;10.10;;;1.77;;
67712;SDS011;67640;55.784;49.138;2023-03-31T05:00:19;10.50;;;1.60;;
67712;SDS011;67640;55.784;49.138;2023-03-31T05:05:24;11.88;;;2.10;;
67712;SDS011;67640;55.784;49.138;2023-03-31T05:10:43;7.45;;;1.30;;
67712;SDS011;67640;55.784;49.138;2023-03-31T05:21:41;11.00;;;1.43;;
67712;SDS011;67640;55.784;49.138;2023-03-31T05:26:47;9.88;;;1.60;;
67712;SDS011;67640;55.784;49.138;2023-03-31T05:31:54;13.20;;;1.85;;
67712;SDS011;67640;55.784;49.138;2023-03-31T05:37:11;9.83;;;1.30;;
67712;SDS011;67640;55.784;49.138;2023-03-31T05:42:17;16.95;;;2.02;;
67712;SDS011;67640;55.784;49.138;2023-03-31T05:47:23;11.08;;;1.90;;
67712;SDS011;67640;55.784;49.138;2023-03-31T05:52:53;15.48;;;2.35;;
67712;SDS011;67640;55.784;49.138;2023-03-31T05:57:59;13.35;;;1.40;;
67712;SDS011;67640;55.784;49.138;2023-03-31T06:08:56;12.37;;;1.40;;
67712;SDS011;67640;55.784;49.138;2023-03-31T06:14:01;9.33;;;1.63;;
67712;SDS011;67640;55.784;49.138;2023-03-31T06:19:06;25.40;;;2.50;;
67712;SDS011;67640;55.784;49.138;2023-03-31T06:24:24;13.43;;;1.75;;
67712;SDS011;67640;55.784;49.138;2023-03-31T06:29:29;10.83;;;1.57;;
67712;SDS011;67640;55.784;49.138;2023-03-31T06:34:34;9.45;;;1.25;;
67712;SDS011;67640;55.784;49.138;2023-03-31T06:39:54;12.73;;;1.72;;
67712;SDS011;67640;55.784;49.138;2023-03-31T06:45:13;11.10;;;2.10;;
67712;SDS011;67640;55.784;49.138;2023-03-31T06:50:32;20.02;;;1.60;;
67712;SDS011;67640;55.784;49.138;2023-03-31T06:55:37;7.67;;;1.13;;
67712;SDS011;67640;55.784;49.138;2023-03-31T07:00:42;8.45;;;1.52;;
67712;SDS011;67640;55.784;49.138;2023-03-31T07:06:02;6.22;;;1.40;;
67712;SDS011;67640;55.784;49.138;2023-03-31T07:11:22;11.50;;;1.42;;
67712;SDS011;67640;55.784;49.138;2023-03-31T07:16:41;26.40;;;4.80;;
67712;SDS011;67640;55.784;49.138;2023-03-31T07:21:46;9.03;;;1.80;;
67712;SDS011;67640;55.784;49.138;2023-03-31T07:26:52;10.88;;;1.57;;
67712;SDS011;67640;55.784;49.138;2023-03-31T07:32:11;5.00;;;1.40;;
67712;SDS011;67640;55.784;49.138;2023-03-31T07:43:10;25.92;;;4.53;;
67712;SDS011;67640;55.784;49.138;2023-03-31T07:48:15;8.47;;;1.97;;
67712;SDS011;67640;55.784;49.138;2023-03-31T07:53:21;10.30;;;1.95;;
67712;SDS011;67640;55.784;49.138;2023-03-31T07:58:40;9.05;;;2.10;;
67712;SDS011;67640;55.784;49.138;2023-03-31T08:03:59;17.60;;;2.10;;
67712;SDS011;67640;55.784;49.138;2023-03-31T08:09:18;21.30;;;4.03;;
67712;SDS011;67640;55.784;49.138;2023-03-31T08:14:37;30.12;;;5.22;;
67712;SDS011;67640;55.784;49.138;2023-03-31T08:19:42;13.33;;;2.20;;
67712;SDS011;67640;55.784;49.138;2023-03-31T08:24:48;10.53;;;2.50;;
67712;SDS011;67640;55.784;49.138;2023-03-31T08:30:09;12.13;;;2.10;;
67712;SDS011;67640;55.784;49.138;2023-03-31T08:35:29;15.25;;;2.08;;
67712;SDS011;67640;55.784;49.138;2023-03-31T08:40:48;15.15;;;4.05;;
67712;SDS011;67640;55.784;49.138;2023-03-31T08:46:05;19.62;;;2.35;;
67712;SDS011;67640;55.784;49.138;2023-03-31T08:51:14;12.60;;;2.07;;
67712;SDS011;67640;55.784;49.138;2023-03-31T08:56:19;16.80;;;1.98;;
67712;SDS011;67640;55.784;49.138;2023-03-31T09:01:28;14.93;;;2.00;;
67712;SDS011;67640;55.784;49.138;2023-03-31T09:28:50;7.67;;;2.15;;
67712;SDS011;67640;55.784;49.138;2023-03-31T09:33:58;19.02;;;2.75;;
67712;SDS011;67640;55.784;49.138;2023-03-31T09:39:17;12.50;;;2.23;;
67712;SDS011;67640;55.784;49.138;2023-03-31T09:44:37;14.10;;;1.92;;
67712;SDS011;67640;55.784;49.138;2023-03-31T09:49:57;20.60;;;3.87;;
67712;SDS011;67640;55.784;49.138;2023-03-31T09:55:03;12.75;;;4.17;;
67712;SDS011;67640;55.784;49.138;2023-03-31T10:10:57;12.00;;;1.72;;
67712;SDS011;67640;55.784;49.138;2023-03-31T10:33:00;38.37;;;4.27;;
67712;SDS011;67640;55.784;49.138;2023-03-31T10:43:27;9.73;;;1.60;;
67712;SDS011;67640;55.784;49.138;2023-03-31T10:54:11;12.55;;;2.45;;
67712;SDS011;67640;55.784;49.138;2023-03-31T11:32:28;13.85;;;2.40;;
67712;SDS011;67640;55.784;49.138;2023-03-31T11:53:38;7.50;;;1.87;;
67712;SDS011;67640;55.784;49.138;2023-03-31T11:58:46;15.20;;;2.43;;
67712;SDS011;67640;55.784;49.138;2023-03-31T12:15:32;8.30;;;2.70;;
67712;SDS011;67640;55.784;49.138;2023-03-31T12:26:55;7.30;;;3.00;;
67712;SDS011;67640;55.784;49.138;2023-03-31T12:31:42;9.63;;;2.33;;
67712;SDS011;67640;55.784;49.138;2023-03-31T13:30:49;9.45;;;2.90;;
67712;SDS011;67640;55.784;49.138;2023-03-31T13:35:58;7.77;;;3.10;;
67712;SDS011;67640;55.784;49.138;2023-03-31T13:52:00;11.40;;;3.50;;
67712;SDS011;67640;55.784;49.138;2023-03-31T14:08:11;8.20;;;3.10;;
67712;SDS011;67640;55.784;49.138;2023-03-31T14:13:31;5.75;;;2.30;;
67712;SDS011;67640;55.784;49.138;2023-03-31T14:18:50;7.50;;;2.33;;
67712;SDS011;67640;55.784;49.138;2023-03-31T14:40:14;5.15;;;1.98;;
67712;SDS011;67640;55.784;49.138;2023-03-31T14:45:33;8.55;;;3.00;;
67712;SDS011;67640;55.784;49.138;2023-03-31T14:50:41;6.53;;;3.15;;
67712;SDS011;67640;55.784;49.138;2023-03-31T15:01:20;9.03;;;3.90;;
67712;SDS011;67640;55.784;49.138;2023-03-31T15:06:25;12.03;;;4.58;;
67712;SDS011;67640;55.784;49.138;2023-03-31T15:11:30;10.40;;;4.70;;
67712;SDS011;67640;55.784;49.138;2023-03-31T15:16:49;17.90;;;6.30;;
67712;SDS011;67640;55.784;49.138;2023-03-31T15:22:20;11.22;;;4.60;;
67712;SDS011;67640;55.784;49.138;2023-03-31T15:32:51;9.30;;;4.58;;
67712;SDS011;67640;55.784;49.138;2023-03-31T15:38:10;8.55;;;4.50;;
67712;SDS011;67640;55.784;49.138;2023-03-31T15:59:49;11.05;;;5.05;;
67712;SDS011;67640;55.784;49.138;2023-03-31T16:04:56;9.85;;;5.22;;
67712;SDS011;67640;55.784;49.138;2023-03-31T16:10:17;8.95;;;4.33;;
67712;SDS011;67640;55.784;49.138;2023-03-31T16:15:39;10.40;;;4.77;;
67712;SDS011;67640;55.784;49.138;2023-03-31T16:20:57;15.03;;;5.37;;
67712;SDS011;67640;55.784;49.138;2023-03-31T16:26:04;15.28;;;5.90;;
67712;SDS011;67640;55.784;49.138;2023-03-31T16:36:36;13.10;;;6.22;;
67712;SDS011;67640;55.784;49.138;2023-03-31T16:41:41;14.33;;;6.20;;
67712;SDS011;67640;55.784;49.138;2023-03-31T16:47:00;12.53;;;6.50;;
67712;SDS011;67640;55.784;49.138;2023-03-31T16:52:14;13.60;;;6.50;;
67712;SDS011;67640;55.784;49.138;2023-03-31T16:57:33;17.00;;;7.45;;
67712;SDS011;67640;55.784;49.138;2023-03-31T17:02:38;13.22;;;7.25;;
67712;SDS011;67640;55.784;49.138;2023-03-31T17:07:44;13.70;;;7.20;;
67712;SDS011;67640;55.784;49.138;2023-03-31T17:13:03;14.68;;;6.62;;
67712;SDS011;67640;55.784;49.138;2023-03-31T17:18:10;15.00;;;7.53;;
67712;SDS011;67640;55.784;49.138;2023-03-31T17:23:29;16.60;;;7.65;;
67712;SDS011;67640;55.784;49.138;2023-03-31T17:28:34;15.15;;;7.12;;
67712;SDS011;67640;55.784;49.138;2023-03-31T17:33:39;15.27;;;7.10;;
67712;SDS011;67640;55.784;49.138;2023-03-31T17:38:45;18.82;;;7.95;;
67712;SDS011;67640;55.784;49.138;2023-03-31T17:44:04;15.72;;;7.62;;
67712;SDS011;67640;55.784;49.138;2023-03-31T17:49:23;15.18;;;8.18;;
67712;SDS011;67640;55.784;49.138;2023-03-31T17:54:42;15.88;;;7.40;;
67712;SDS011;67640;55.784;49.138;2023-03-31T17:59:47;16.00;;;7.37;;
67712;SDS011;67640;55.784;49.138;2023-03-31T18:04:52;15.40;;;7.83;;
67712;SDS011;67640;55.784;49.138;2023-03-31T18:09:58;14.85;;;7.60;;
67712;SDS011;67640;55.784;49.138;2023-03-31T18:15:16;11.30;;;5.70;;
67712;SDS011;67640;55.784;49.138;2023-03-31T18:20:21;12.37;;;6.30;;
67712;SDS011;67640;55.784;49.138;2023-03-31T18:25:41;12.47;;;6.00;;
67712;SDS011;67640;55.784;49.138;2023-03-31T18:36:39;11.57;;;5.55;;
67712;SDS011;67640;55.784;49.138;2023-03-31T18:41:58;9.77;;;5.10;;
67712;SDS011;67640;55.784;49.138;2023-03-31T18:47:03;10.28;;;5.42;;
67712;SDS011;67640;55.784;49.138;2023-03-31T18:52:20;11.12;;;4.87;;
67712;SDS011;67640;55.784;49.138;2023-03-31T18:57:25;12.15;;;5.35;;
67712;SDS011;67640;55.784;49.138;2023-03-31T19:02:31;8.65;;;4.78;;
67712;SDS011;67640;55.784;49.138;2023-03-31T19:07:51;10.30;;;4.47;;
67712;SDS011;67640;55.784;49.138;2023-03-31T19:18:49;9.30;;;4.90;;
67712;SDS011;67640;55.784;49.138;2023-03-31T19:24:08;9.55;;;4.25;;
67712;SDS011;67640;55.784;49.138;2023-03-31T19:29:14;8.78;;;3.75;;
67712;SDS011;67640;55.784;49.138;2023-03-31T19:34:19;7.78;;;3.60;;
67712;SDS011;67640;55.784;49.138;2023-03-31T19:39:24;7.63;;;3.93;;
67712;SDS011;67640;55.784;49.138;2023-03-31T19:44:43;6.87;;;3.30;;
67712;SDS011;67640;55.784;49.138;2023-03-31T19:49:49;5.58;;;2.50;;
67712;SDS011;67640;55.784;49.138;2023-03-31T19:55:07;5.23;;;2.40;;
67712;SDS011;67640;55.784;49.138;2023-03-31T20:00:12;5.17;;;2.27;;
67712;SDS011;67640;55.784;49.138;2023-03-31T20:05:31;6.10;;;2.50;;
67712;SDS011;67640;55.784;49.138;2023-03-31T20:10:51;5.83;;;2.70;;
67712;SDS011;67640;55.784;49.138;2023-03-31T20:16:16;5.03;;;2.50;;
67712;SDS011;67640;55.784;49.138;2023-03-31T20:21:40;8.47;;;3.03;;
67712;SDS011;67640;55.784;49.138;2023-03-31T20:26:59;7.37;;;2.75;;
67712;SDS011;67640;55.784;49.138;2023-03-31T20:32:22;7.17;;;2.90;;
67712;SDS011;67640;55.784;49.138;2023-03-31T20:37:44;10.20;;;3.08;;
67712;SDS011;67640;55.784;49.138;2023-03-31T20:42:50;8.58;;;3.50;;
67712;SDS011;67640;55.784;49.138;2023-03-31T20:48:10;7.95;;;3.30;;
67712;SDS011;67640;55.784;49.138;2023-03-31T20:53:15;8.05;;;3.80;;
67712;SDS011;67640;55.784;49.138;2023-03-31T20:58:21;8.77;;;3.70;;
67712;SDS011;67640;55.784;49.138;2023-03-31T21:03:40;9.38;;;3.47;;
67712;SDS011;67640;55.784;49.138;2023-03-31T21:08:59;9.27;;;4.10;;
67712;SDS011;67640;55.784;49.138;2023-03-31T21:14:16;7.73;;;3.60;;
67712;SDS011;67640;55.784;49.138;2023-03-31T21:19:22;9.50;;;4.10;;
67712;SDS011;67640;55.784;49.138;2023-03-31T21:24:27;7.70;;;3.90;;
67712;SDS011;67640;55.784;49.138;2023-03-31T21:29:46;6.92;;;3.67;;
67712;SDS011;67640;55.784;49.138;2023-03-31T21:35:05;10.63;;;4.05;;
67712;SDS011;67640;55.784;49.138;2023-03-31T21:40:24;7.83;;;3.33;;
67712;SDS011;67640;55.784;49.138;2023-03-31T21:45:45;12.00;;;3.17;;
67712;SDS011;67640;55.784;49.138;2023-03-31T21:50:50;7.83;;;3.42;;
67712;SDS011;67640;55.784;49.138;2023-03-31T21:56:09;6.27;;;3.13;;
67712;SDS011;67640;55.784;49.138;2023-03-31T22:01:29;7.67;;;2.70;;
67712;SDS011;67640;55.784;49.138;2023-03-31T22:06:48;8.00;;;2.95;;
67712;SDS011;67640;55.784;49.138;2023-03-31T22:11:53;5.43;;;2.33;;
67712;SDS011;67640;55.784;49.138;2023-03-31T22:16:58;5.40;;;2.60;;
67712;SDS011;67640;55.784;49.138;2023-03-31T22:22:16;5.50;;;2.50;;
67712;SDS011;67640;55.784;49.138;2023-03-31T22:27:21;4.73;;;2.50;;
67712;SDS011;67640;55.784;49.138;2023-03-31T22:32:40;5.67;;;2.67;;
67712;SDS011;67640;55.784;49.138;2023-03-31T22:37:59;6.58;;;2.60;;
67712;SDS011;67640;55.784;49.138;2023-03-31T22:43:18;5.72;;;3.15;;
67712;SDS011;67640;55.784;49.138;2023-03-31T22:48:37;4.92;;;2.67;;
67712;SDS011;67640;55.784;49.138;2023-03-31T22:53:42;6.60;;;2.90;;
67712;SDS011;67640;55.784;49.138;2023-03-31T22:58:47;5.45;;;2.77;;
67712;SDS011;67640;55.784;49.138;2023-03-31T23:04:04;5.20;;;2.50;;
67712;SDS011;67640;55.784;49.138;2023-03-31T23:09:11;7.53;;;3.00;;
67712;SDS011;67640;55.784;49.138;2023-03-31T23:14:31;6.92;;;2.90;;
67712;SDS011;67640;55.784;49.138;2023-03-31T23:19:50;6.08;;;3.00;;
67712;SDS011;67640;55.784;49.138;2023-03-31T23:25:10;7.40;;;2.80;;
67712;SDS011;67640;55.784;49.138;2023-03-31T23:30:30;7.28;;;3.22;;
67712;SDS011;67640;55.784;49.138;2023-03-31T23:35:35;7.23;;;3.70;;
67712;SDS011;67640;55.784;49.138;2023-03-31T23:40:40;7.03;;;2.95;;
67712;SDS011;67640;55.784;49.138;2023-03-31T23:45:46;7.87;;;3.55;;
67712;SDS011;67640;55.784;49.138;2023-03-31T23:51:05;7.33;;;3.62;;
67712;SDS011;67640;55.784;49.138;2023-03-31T23:56:11;8.13;;;3.85;;
